createdAt,value
2022-08-26T00:02:46.156Z,124.03678929765886
2022-08-26T00:09:08.000Z,130.04347826086956
2022-08-26T00:15:29.381Z,128.33779264214047
2022-08-26T00:21:51.230Z,128.66555183946488
2022-08-26T00:28:13.400Z,123.09030100334448
2022-08-26T00:35:16.794Z,132.96321070234114
2022-08-26T00:41:38.683Z,132.48494983277592
2022-08-26T00:48:23.633Z,132.2140468227425
2022-08-26T00:54:45.049Z,136.84615384615384
2022-08-26T01:01:06.214Z,133.77926421404683
2022-08-26T01:07:27.638Z,141.1505016722408
2022-08-26T01:13:52.369Z,135.66555183946488
2022-08-26T01:25:31.749Z,134.561872909699
2022-08-26T01:34:35.006Z,138.7458193979933
2022-08-26T01:47:13.538Z,144.63879598662209
2022-08-26T01:53:35.871Z,133.41137123745818
2022-08-26T02:02:15.854Z,144.29096989966555
2022-08-26T02:12:00.174Z,147.89966555183946
2022-08-26T02:31:47.249Z,140.30769230769232
2022-08-26T02:43:39.618Z,139.48160535117057
2022-08-26T02:50:01.486Z,154.3277591973244
2022-08-26T02:56:22.862Z,145.86622073578596
2022-08-26T03:07:10.930Z,161.03010033444815
2022-08-26T03:19:06.556Z,149.314381270903
2022-08-26T03:25:37.474Z,154.91304347826087
2022-08-26T03:34:29.055Z,150.66555183946488
2022-08-26T03:43:10.672Z,152.99665551839465
2022-08-26T03:53:37.323Z,164.90635451505017
2022-08-26T04:01:46.978Z,164.8963210702341
2022-08-26T04:08:09.262Z,161.49498327759198
2022-08-26T04:14:31.327Z,163.52173913043478
2022-08-26T04:28:55.125Z,156.1571906354515
2022-08-26T04:35:16.721Z,156.37458193979933
2022-08-26T04:47:16.950Z,172.7391304347826
2022-08-26T04:53:51.922Z,178.44481605351172
2022-08-26T05:00:13.112Z,171.02341137123747
2022-08-26T05:06:37.053Z,177.18060200668896
2022-08-26T05:12:58.237Z,176.5752508361204
2022-08-26T05:24:17.991Z,186.5819397993311
2022-08-26T05:54:57.587Z,190.2173913043478
2022-08-26T06:01:18.794Z,192.1839464882943
2022-08-26T06:07:41.203Z,185.0
2022-08-26T06:14:03.918Z,199.03678929765886
2022-08-26T06:20:27.913Z,200.69230769230768
2022-08-26T06:30:05.735Z,191.83946488294313
2022-08-26T06:36:27.587Z,189.81270903010034
2022-08-26T06:42:49.617Z,193.4581939799331
2022-08-26T06:49:11.678Z,195.91304347826087
2022-08-26T06:55:32.606Z,186.46822742474916
2022-08-26T07:02:22.296Z,186.4247491638796
2022-08-26T07:08:43.642Z,188.29096989966555
2022-08-26T07:15:04.906Z,195.7591973244147
2022-08-26T07:27:20.316Z,176.91304347826087
2022-08-26T07:33:46.096Z,175.08026755852842
2022-08-26T07:43:44.620Z,174.2541806020067
2022-08-26T07:50:12.340Z,169.98996655518394
2022-08-26T08:04:58.510Z,178.2809364548495
2022-08-26T08:11:22.329Z,161.76923076923077
2022-08-26T08:21:37.182Z,154.03678929765886
2022-08-26T08:28:00.287Z,159.66889632107024
2022-08-26T08:34:24.990Z,140.35451505016724
2022-08-26T08:40:46.698Z,146.47826086956522
2022-08-26T08:47:08.581Z,155.90635451505017
2022-08-26T08:55:35.281Z,136.68227424749165
2022-08-26T09:01:57.482Z,127.46822742474916
2022-08-26T09:08:20.476Z,128.96989966555185
2022-08-26T09:14:42.145Z,128.9297658862876
2022-08-26T09:21:04.422Z,129.1571906354515
2022-08-26T09:27:25.850Z,134.23076923076923
2022-08-26T09:33:47.746Z,128.31103678929765
2022-08-26T09:43:57.026Z,125.86622073578596
2022-08-26T09:50:18.818Z,109.96321070234114
2022-08-26T09:56:39.945Z,114.8361204013378
2022-08-26T10:05:12.474Z,124.95986622073579
2022-08-26T10:11:33.712Z,129.24414715719064
2022-08-26T10:17:54.999Z,122.80267558528428
2022-08-26T10:34:00.042Z,128.33779264214047
2022-08-26T10:40:25.024Z,117.43478260869566
2022-08-26T10:46:57.640Z,119.12040133779264
2022-08-26T10:53:25.377Z,118.40468227424749
2022-08-26T10:59:51.745Z,115.33444816053512
2022-08-26T11:06:17.676Z,122.5752508361204
2022-08-26T11:12:49.386Z,135.87959866220737
2022-08-26T11:20:30.305Z,126.26086956521739
2022-08-26T11:29:26.507Z,127.4448160535117
2022-08-26T11:36:12.323Z,117.25083612040133
2022-08-26T11:42:48.448Z,133.69899665551839
2022-08-26T11:52:41.095Z,127.73578595317726
2022-08-26T11:59:05.767Z,127.23411371237458
2022-08-26T12:08:38.062Z,127.96321070234114
2022-08-26T12:15:02.234Z,127.15050167224081
2022-08-26T12:23:39.193Z,133.96321070234114
2022-08-26T12:35:56.668Z,131.47826086956522
2022-08-26T12:42:20.326Z,149.80267558528428
2022-08-26T12:53:10.954Z,184.41137123745818
2022-08-26T12:59:34.481Z,191.1103678929766
2022-08-26T13:05:57.335Z,201.2742474916388
2022-08-26T13:19:10.335Z,187.40133779264215
2022-08-26T13:25:33.094Z,168.20735785953178
2022-08-26T13:31:57.131Z,155.10033444816054
2022-08-26T13:38:33.444Z,153.53177257525084
2022-08-26T13:45:34.301Z,208.69230769230768
2022-08-26T13:53:23.814Z,226.20401337792643
2022-08-26T14:00:54.565Z,223.66889632107024
2022-08-26T14:07:21.861Z,196.36789297658862
2022-08-26T14:13:45.625Z,97.94314381270902
2022-08-26T14:20:10.574Z,108.9933110367893
2022-08-26T14:26:34.918Z,87.80267558528428
2022-08-26T14:32:59.944Z,84.69565217391305
2022-08-26T14:39:25.619Z,88.70568561872909
2022-08-26T14:45:53.081Z,99.5886287625418
2022-08-26T14:52:25.328Z,150.2408026755853
2022-08-26T14:58:49.615Z,233.53846153846155
2022-08-26T15:08:38.299Z,267.0802675585284
2022-08-26T15:26:52.719Z,263.18729096989966
2022-08-26T15:33:15.605Z,242.7859531772575
2022-08-26T15:39:39.708Z,221.20401337792643
2022-08-26T15:46:02.268Z,214.35451505016724
2022-08-26T15:52:25.302Z,220.7056856187291
2022-08-26T15:58:48.649Z,211.1505016722408
2022-08-26T16:05:12.569Z,222.2408026755853
2022-08-26T16:11:37.485Z,221.95652173913044
2022-08-26T16:18:01.817Z,235.314381270903
2022-08-26T16:30:03.296Z,228.77257525083613
2022-08-26T16:36:26.533Z,214.62541806020067
2022-08-26T16:42:50.815Z,205.3979933110368
2022-08-26T16:49:15.506Z,176.55183946488293
2022-08-26T16:55:36.694Z,152.61204013377926
2022-08-26T17:03:50.789Z,112.89966555183946
2022-08-26T17:10:12.193Z,89.62541806020067
2022-08-26T17:16:33.518Z,81.05685618729098
2022-08-26T17:27:16.200Z,75.27424749163879
2022-08-26T17:33:40.780Z,55.17056856187291
2022-08-26T17:42:14.957Z,58.74916387959866
2022-08-26T17:48:37.090Z,42.77257525083612
2022-08-26T17:58:23.581Z,32.22742474916388
2022-08-26T18:08:35.581Z,38.53511705685619
2022-08-26T18:14:57.756Z,33.68561872909699
2022-08-26T18:27:02.776Z,33.39464882943144
2022-08-26T18:40:43.297Z,34.591973244147155
2022-08-26T18:48:15.820Z,28.70903010033445
2022-08-26T18:54:39.723Z,20.555183946488295
2022-08-26T19:01:03.824Z,24.859531772575252
2022-08-26T19:07:26.981Z,24.65886287625418
2022-08-26T19:15:31.892Z,32.147157190635454
2022-08-26T19:21:56.570Z,29.34113712374582
2022-08-26T19:28:30.203Z,26.842809364548494
2022-08-26T19:34:53.381Z,29.421404682274247
2022-08-26T19:41:15.177Z,23.093645484949832
2022-08-26T19:47:38.238Z,26.45819397993311
2022-08-26T19:54:00.651Z,23.34448160535117
2022-08-26T20:00:23.169Z,23.62876254180602
2022-08-26T20:06:51.096Z,26.070234113712374
2022-08-26T20:13:22.620Z,24.989966555183948
2022-08-26T20:19:47.143Z,22.48160535117057
2022-08-26T20:26:12.593Z,26.88628762541806
2022-08-26T20:32:35.675Z,22.869565217391305
2022-08-26T20:42:37.322Z,26.224080267558527
2022-08-26T20:51:01.936Z,23.645484949832777
2022-08-26T20:57:24.343Z,28.91638795986622
2022-08-26T21:03:45.480Z,24.99665551839465
2022-08-26T21:10:06.850Z,25.377926421404684
2022-08-26T21:16:28.220Z,26.23076923076923
2022-08-26T21:22:50.172Z,22.334448160535118
2022-08-26T21:29:10.761Z,29.157190635451506
2022-08-26T21:35:31.747Z,27.494983277591974
2022-08-26T21:41:52.264Z,27.59531772575251
2022-08-26T21:51:47.292Z,23.65886287625418
2022-08-26T21:58:07.735Z,36.264214046822744
2022-08-26T22:04:28.400Z,27.94648829431438
2022-08-26T22:10:49.712Z,32.16053511705686
2022-08-26T22:17:10.874Z,30.732441471571907
2022-08-26T22:23:31.838Z,28.17725752508361
2022-08-26T22:35:59.587Z,27.190635451505017
2022-08-26T22:42:21.214Z,23.441471571906355
2022-08-26T22:48:42.453Z,25.846153846153847
2022-08-26T22:55:03.456Z,17.31438127090301
2022-08-26T23:01:24.234Z,20.578595317725753
2022-08-26T23:07:45.674Z,17.414715719063544
2022-08-26T23:14:06.934Z,18.976588628762542
2022-08-26T23:30:04.683Z,17.217391304347824
2022-08-26T23:36:26.801Z,14.605351170568563
2022-08-26T23:42:47.953Z,15.341137123745819
2022-08-26T23:49:27.734Z,9.96989966555184
2022-08-26T23:55:48.812Z,12.933110367892976
